Time;durP1;ratioP1;P1;durP2;ratioP2;P2;SDS_P1;SDS_P2;PMS_P1;PMS_P2;Temp;Humidity;BMP_temperature;BMP_pressure;BME280_temperature;BME280_humidity;BME280_pressure;Samples;Min_cycle;Max_cycle;Signal;HPM_P1;HPM_P2
2022/03/17 00:00:48;;;;;;;21.20;14.60;;;7.90;99.90;;;;;;4915965;29;20321;-58
2022/03/17 00:03:16;;;;;;;20.90;13.43;;;7.90;99.90;;;;;;4919779;29;20249;-59
2022/03/17 00:05:44;;;;;;;21.90;14.13;;;7.90;99.90;;;;;;4935533;29;20237;-60
2022/03/17 00:08:12;;;;;;;21.67;14.50;;;7.90;99.90;;;;;;4935667;29;20303;-60
2022/03/17 00:10:41;;;;;;;19.07;13.47;;;7.90;99.90;;;;;;4919873;29;20245;-60
2022/03/17 00:13:09;;;;;;;23.67;13.97;;;7.80;99.90;;;;;;4903333;29;20241;-60
2022/03/17 00:15:40;;;;;;;22.07;14.50;;;7.80;99.90;;;;;;4916741;29;20236;-60
2022/03/17 00:18:10;;;;;;;22.13;14.93;;;7.80;99.90;;;;;;4916704;29;20304;-60
2022/03/17 00:20:39;;;;;;;19.90;14.67;;;7.80;99.90;;;;;;4916480;29;20272;-59
2022/03/17 00:23:07;;;;;;;20.20;14.23;;;7.80;99.90;;;;;;4921443;29;20240;-60
2022/03/17 00:25:36;;;;;;;22.30;15.77;;;7.80;99.90;;;;;;4935525;29;20243;-60
2022/03/17 00:28:05;;;;;;;21.90;15.43;;;7.80;99.90;;;;;;4935635;29;20256;-60
2022/03/17 00:30:36;;;;;;;20.87;15.03;;;7.80;99.90;;;;;;4919331;29;20693;-60
2022/03/17 00:33:04;;;;;;;19.40;14.20;;;7.80;99.90;;;;;;4921360;29;20326;-60
2022/03/17 00:35:36;;;;;;;21.70;15.60;;;7.80;99.90;;;;;;4935311;29;20236;-59
2022/03/17 00:38:07;;;;;;;20.53;14.10;;;7.80;99.90;;;;;;4935334;29;20299;-60
2022/03/17 00:40:36;;;;;;;22.03;15.43;;;7.80;99.90;;;;;;4920545;29;20251;-59
2022/03/17 00:43:05;;;;;;;22.40;16.03;;;7.80;99.90;;;;;;4916502;29;20252;-60
2022/03/17 00:45:33;;;;;;;21.80;15.80;;;7.80;99.90;;;;;;4916190;29;20319;-60
2022/03/17 00:48:02;;;;;;;22.37;15.43;;;7.80;99.90;;;;;;4916194;29;20274;-60
2022/03/17 00:50:30;;;;;;;23.60;16.87;;;7.80;99.90;;;;;;4915835;29;20230;-60
2022/03/17 00:53:00;;;;;;;24.03;16.80;;;7.80;99.90;;;;;;4930670;29;20248;-59
2022/03/17 00:55:28;;;;;;;24.13;16.17;;;7.80;99.90;;;;;;4915966;29;20245;-60
2022/03/17 00:57:57;;;;;;;26.03;17.47;;;7.80;99.90;;;;;;4915992;29;20327;-59
2022/03/17 01:00:25;;;;;;;26.33;17.77;;;7.80;99.90;;;;;;4916052;29;20724;-59
2022/03/17 01:02:54;;;;;;;24.00;17.57;;;7.80;99.90;;;;;;4919279;29;20248;-59
2022/03/17 01:05:24;;;;;;;26.70;17.87;;;7.80;99.90;;;;;;4935011;29;20239;-59
2022/03/17 01:07:52;;;;;;;27.27;17.47;;;7.90;99.90;;;;;;4935227;29;20244;-60
2022/03/17 01:10:23;;;;;;;23.63;16.77;;;7.90;99.90;;;;;;4923140;29;20244;-60
2022/03/17 01:12:51;;;;;;;26.77;17.63;;;7.90;99.90;;;;;;4919028;29;20244;-59
2022/03/17 01:15:21;;;;;;;23.93;17.43;;;7.90;99.90;;;;;;4934576;29;20260;-60
2022/03/17 01:17:50;;;;;;;24.37;17.93;;;7.90;99.90;;;;;;4934608;29;20591;-59
2022/03/17 01:20:18;;;;;;;23.13;17.67;;;7.90;99.90;;;;;;4923456;29;20251;-60
2022/03/17 01:22:46;;;;;;;24.70;18.23;;;7.90;99.90;;;;;;4915140;29;20274;-60
2022/03/17 01:25:14;;;;;;;23.17;17.40;;;7.90;99.90;;;;;;4898713;29;20244;-60
2022/03/17 01:27:43;;;;;;;23.53;16.40;;;7.90;99.90;;;;;;4915364;29;22507;-60
2022/03/17 01:30:12;;;;;;;26.67;19.50;;;7.90;99.90;;;;;;4915402;29;20249;-60
2022/03/17 01:32:40;;;;;;;27.23;19.67;;;7.90;99.90;;;;;;4916835;29;20578;-60
2022/03/17 01:35:10;;;;;;;23.47;18.30;;;7.90;99.90;;;;;;4934599;29;20237;-60
2022/03/17 01:37:38;;;;;;;24.10;18.03;;;7.90;99.90;;;;;;4932799;29;20236;-59
2022/03/17 01:40:08;;;;;;;26.07;18.60;;;7.90;99.90;;;;;;4915149;29;20241;-60
2022/03/17 01:42:36;;;;;;;24.27;18.27;;;7.90;99.90;;;;;;4916245;29;20241;-59
2022/03/17 01:45:08;;;;;;;25.87;19.03;;;8.00;99.90;;;;;;4934203;29;20240;-60
2022/03/17 01:47:36;;;;;;;25.90;18.33;;;8.00;99.90;;;;;;4932885;29;20245;-59
2022/03/17 01:50:07;;;;;;;25.33;18.73;;;8.00;99.90;;;;;;4914714;29;20385;-60
2022/03/17 01:52:36;;;;;;;23.13;17.83;;;8.00;99.90;;;;;;4915109;29;20799;-59
2022/03/17 01:55:05;;;;;;;26.87;19.13;;;8.00;99.90;;;;;;4915083;29;20240;-59
2022/03/17 01:57:34;;;;;;;25.37;18.93;;;8.00;99.90;;;;;;4915521;29;20240;-59
2022/03/17 02:00:08;;;;;;;25.97;18.77;;;8.00;99.90;;;;;;4925205;29;20253;-59
2022/03/17 02:02:42;;;;;;;24.47;18.70;;;8.00;99.90;;;;;;4891954;29;20245;-59
2022/03/17 02:05:11;;;;;;;25.60;19.73;;;8.00;99.90;;;;;;4883977;29;20255;-59
2022/03/17 02:07:41;;;;;;;26.70;19.57;;;8.00;99.90;;;;;;4916077;29;20276;-59
2022/03/17 02:10:10;;;;;;;26.40;20.20;;;8.00;99.90;;;;;;4924468;29;20763;-60
2022/03/17 02:15:27;;;;;;;25.30;19.07;;;8.00;99.90;;;;;;4933505;29;20712;-59
2022/03/17 02:17:56;;;;;;;28.57;21.50;;;8.00;99.90;;;;;;4933515;29;20240;-60
2022/03/17 02:20:24;;;;;;;27.50;20.87;;;8.00;99.90;;;;;;4922911;29;20264;-59
2022/03/17 02:25:33;;;;;;;27.77;21.17;;;8.00;99.90;;;;;;4914517;29;20248;-59
2022/03/17 02:25:47;;;;;;;26.97;21.30;;;8.00;99.90;;;;;;4914624;29;20256;-59
2022/03/17 02:28:16;;;;;;;29.27;21.40;;;8.00;99.90;;;;;;4919856;29;20274;-59
2022/03/17 02:30:45;;;;;;;27.70;21.20;;;8.00;99.90;;;;;;4931192;29;20241;-59
2022/03/17 02:33:16;;;;;;;27.83;21.20;;;8.00;99.90;;;;;;4920358;29;20760;-59
2022/03/17 02:35:45;;;;;;;28.67;21.30;;;8.00;99.90;;;;;;4933308;29;20244;-60
2022/03/17 02:38:14;;;;;;;30.00;21.90;;;8.00;99.90;;;;;;4927069;29;20229;-60
2022/03/17 02:40:48;;;;;;;27.63;21.10;;;8.00;99.90;;;;;;4914402;29;20244;-60
2022/03/17 02:43:18;;;;;;;29.47;21.80;;;8.00;99.90;;;;;;4914556;29;20251;-59
2022/03/17 02:45:47;;;;;;;27.57;20.80;;;8.00;99.90;;;;;;4914324;29;20278;-60
2022/03/17 02:48:16;;;;;;;29.27;21.73;;;8.00;99.90;;;;;;4914189;29;20244;-59
2022/03/17 02:50:45;;;;;;;27.77;19.60;;;8.00;99.90;;;;;;4914009;29;20241;-59
2022/03/17 02:53:15;;;;;;;26.97;20.47;;;8.00;99.90;;;;;;4914305;29;20247;-59
2022/03/17 02:55:44;;;;;;;29.17;21.17;;;8.00;99.90;;;;;;4913979;29;20709;-59
2022/03/17 02:58:14;;;;;;;29.87;21.50;;;8.00;99.90;;;;;;4919593;29;20248;-59
2022/03/17 03:00:42;;;;;;;27.30;19.73;;;8.00;99.90;;;;;;4933015;29;20244;-60
2022/03/17 03:03:12;;;;;;;29.17;21.73;;;8.00;99.90;;;;;;4921848;29;20260;-60
2022/03/17 03:05:40;;;;;;;29.33;21.97;;;8.00;99.90;;;;;;4913950;29;20237;-59
2022/03/17 03:08:08;;;;;;;30.07;21.37;;;8.00;99.90;;;;;;4918652;29;20267;-59
2022/03/17 03:10:36;;;;;;;28.43;20.90;;;8.00;99.90;;;;;;4931845;29;20327;-60
2022/03/17 03:13:05;;;;;;;29.80;21.63;;;7.90;99.90;;;;;;4914084;29;20276;-60
2022/03/17 03:15:34;;;;;;;30.67;21.47;;;8.00;99.90;;;;;;4913870;29;20237;-60
2022/03/17 03:18:03;;;;;;;31.10;21.57;;;7.90;99.90;;;;;;4913646;29;20273;-59
2022/03/17 03:20:31;;;;;;;29.13;21.10;;;7.90;99.90;;;;;;4913772;29;20236;-60
2022/03/17 03:22:59;;;;;;;30.03;21.47;;;7.90;99.90;;;;;;4913780;29;20268;-60
2022/03/17 03:25:27;;;;;;;31.67;23.10;;;8.00;99.90;;;;;;4913728;29;20241;-60
2022/03/17 03:27:55;;;;;;;33.10;23.33;;;8.00;99.90;;;;;;4913916;29;20254;-59
2022/03/17 03:30:24;;;;;;;28.93;20.57;;;8.00;99.90;;;;;;4913862;29;20266;-59
2022/03/17 03:32:53;;;;;;;31.80;22.70;;;7.90;99.90;;;;;;4913965;29;20284;-59
2022/03/17 03:38:07;;;;;;;31.93;23.27;;;8.00;99.90;;;;;;4918757;29;20248;-59
2022/03/17 03:40:35;;;;;;;32.20;22.70;;;8.00;99.90;;;;;;4921318;29;20264;-59
2022/03/17 03:43:03;;;;;;;31.23;22.93;;;8.00;99.90;;;;;;4921976;29;20331;-58
2022/03/17 03:45:31;;;;;;;30.80;22.77;;;8.00;99.90;;;;;;4936152;29;20298;-59
2022/03/17 03:48:01;;;;;;;33.20;23.70;;;7.90;99.90;;;;;;4936186;29;20247;-59
2022/03/17 03:50:30;;;;;;;34.83;25.00;;;8.00;99.90;;;;;;4935761;29;20243;-59
2022/03/17 03:52:59;;;;;;;32.63;24.03;;;8.00;99.90;;;;;;4931720;29;20292;-59
2022/03/17 03:55:27;;;;;;;32.07;23.37;;;8.00;99.90;;;;;;4917021;29;20709;-59
2022/03/17 03:57:55;;;;;;;33.17;23.80;;;7.90;99.90;;;;;;4917214;29;20245;-59
2022/03/17 04:00:29;;;;;;;33.40;24.57;;;7.90;99.90;;;;;;4917301;29;20603;-60
2022/03/17 04:02:58;;;;;;;32.80;24.77;;;7.90;99.90;;;;;;4920639;29;20251;-59
2022/03/17 04:05:28;;;;;;;33.13;24.67;;;7.90;99.90;;;;;;4935871;29;20331;-59
2022/03/17 04:07:57;;;;;;;35.07;24.50;;;7.90;99.90;;;;;;4932052;29;20264;-60
2022/03/17 04:10:26;;;;;;;34.57;24.77;;;7.90;99.90;;;;;;4916786;29;20681;-59
2022/03/17 04:12:54;;;;;;;32.53;23.07;;;8.00;99.90;;;;;;4917052;29;20243;-59
2022/03/17 04:15:23;;;;;;;34.50;25.57;;;8.00;99.90;;;;;;4916897;29;20240;-60
2022/03/17 04:17:51;;;;;;;34.40;25.10;;;7.90;99.90;;;;;;4916568;29;20268;-60
2022/03/17 04:20:19;;;;;;;35.53;26.27;;;7.90;99.90;;;;;;4917275;29;20616;-60
2022/03/17 04:22:49;;;;;;;32.97;24.63;;;7.90;99.90;;;;;;4924640;29;20243;-60
2022/03/17 04:25:17;;;;;;;34.03;24.10;;;8.00;99.90;;;;;;4916741;29;20271;-60
2022/03/17 04:27:45;;;;;;;35.27;25.63;;;8.00;99.90;;;;;;4918470;29;20232;-60
2022/03/17 04:30:13;;;;;;;34.37;25.13;;;8.00;99.90;;;;;;4920421;29;20293;-60
2022/03/17 04:32:42;;;;;;;35.20;26.23;;;8.00;99.90;;;;;;4918130;29;20241;-60
2022/03/17 04:35:10;;;;;;;38.63;28.13;;;8.00;99.90;;;;;;4935508;29;20251;-60
2022/03/17 04:37:38;;;;;;;35.43;26.50;;;8.00;99.90;;;;;;4935129;29;20267;-59
2022/03/17 04:40:08;;;;;;;35.23;25.40;;;7.90;99.90;;;;;;4935626;29;20265;-60
2022/03/17 04:42:36;;;;;;;38.53;25.47;;;7.90;99.90;;;;;;4934182;29;20295;-59
2022/03/17 04:45:06;;;;;;;34.27;24.80;;;8.00;99.90;;;;;;4915907;29;20728;-60
2022/03/17 04:47:38;;;;;;;37.47;27.43;;;8.00;99.90;;;;;;4916165;29;20244;-60
2022/03/17 04:50:07;;;;;;;35.97;25.80;;;8.00;99.90;;;;;;4915433;29;20248;-60
2022/03/17 04:55:23;;;;;;;37.50;26.80;;;8.00;99.90;;;;;;4915982;29;20323;-59
2022/03/17 04:57:51;;;;;;;35.10;25.67;;;8.00;99.90;;;;;;4915915;29;20250;-58
2022/03/17 05:00:20;;;;;;;35.30;25.83;;;8.00;99.90;;;;;;4916651;29;20279;-60
2022/03/17 05:02:48;;;;;;;38.13;26.80;;;8.00;99.90;;;;;;4916084;29;20263;-60
2022/03/17 05:05:17;;;;;;;37.20;27.23;;;8.00;99.90;;;;;;4916412;29;20248;-60
2022/03/17 05:07:45;;;;;;;35.67;26.33;;;8.00;99.90;;;;;;4917787;29;20250;-60
2022/03/17 05:10:13;;;;;;;39.13;25.90;;;8.00;99.90;;;;;;4934669;29;20236;-60
2022/03/17 05:12:42;;;;;;;36.33;25.00;;;8.00;99.90;;;;;;4917023;29;20260;-59
2022/03/17 05:15:10;;;;;;;36.70;27.00;;;8.00;99.90;;;;;;4915942;29;20300;-59
2022/03/17 05:17:40;;;;;;;36.70;27.13;;;8.00;99.90;;;;;;4916961;29;20245;-60
2022/03/17 05:20:12;;;;;;;38.87;25.93;;;8.00;99.90;;;;;;4934669;29;20758;-59
2022/03/17 05:22:41;;;;;;;37.07;26.77;;;8.00;99.90;;;;;;4932871;29;20250;-59
2022/03/17 05:25:10;;;;;;;40.57;26.83;;;8.00;99.90;;;;;;4915618;29;20237;-59
2022/03/17 05:27:38;;;;;;;32.57;22.63;;;8.00;99.90;;;;;;4916663;29;20243;-60
2022/03/17 05:30:11;;;;;;;36.17;27.73;;;8.00;99.90;;;;;;4934572;29;20239;-59
2022/03/17 05:32:39;;;;;;;37.77;28.23;;;8.00;99.90;;;;;;4918215;29;20267;-60
2022/03/17 05:35:08;;;;;;;36.63;26.83;;;8.00;99.90;;;;;;4934579;29;20244;-60
2022/03/17 05:37:37;;;;;;;37.47;27.23;;;8.00;99.90;;;;;;4918395;29;20331;-60
2022/03/17 05:40:09;;;;;;;36.17;25.70;;;8.00;99.90;;;;;;4915641;29;20708;-60
2022/03/17 05:42:37;;;;;;;37.67;28.80;;;8.00;99.90;;;;;;4916073;29;20245;-60
2022/03/17 05:45:08;;;;;;;36.43;27.93;;;8.00;99.90;;;;;;4934230;29;20243;-60
2022/03/17 05:47:37;;;;;;;38.67;28.63;;;8.00;99.90;;;;;;4934024;29;20276;-60
2022/03/17 05:50:09;;;;;;;37.03;27.57;;;8.00;99.90;;;;;;4934312;29;20243;-60
2022/03/17 05:52:38;;;;;;;39.20;28.53;;;8.00;99.90;;;;;;4918052;29;20240;-60
2022/03/17 05:55:07;;;;;;;37.27;27.10;;;8.00;99.90;;;;;;4934019;29;20240;-60
2022/03/17 05:57:36;;;;;;;37.27;28.17;;;8.00;99.90;;;;;;4933774;29;20240;-59
2022/03/17 06:00:06;;;;;;;38.27;28.33;;;8.00;99.90;;;;;;4934081;29;20247;-60
2022/03/17 06:02:36;;;;;;;39.13;28.73;;;8.00;99.90;;;;;;4931700;29;20701;-59
2022/03/17 06:05:07;;;;;;;38.53;28.27;;;8.00;99.90;;;;;;4930865;29;20723;-59
2022/03/17 06:07:39;;;;;;;39.13;28.77;;;8.00;99.90;;;;;;4915317;29;20261;-60
2022/03/17 06:10:09;;;;;;;41.80;30.33;;;8.00;99.90;;;;;;4923549;29;20315;-60
2022/03/17 06:12:38;;;;;;;39.93;29.03;;;8.00;99.90;;;;;;4916272;29;20240;-60
2022/03/17 06:15:07;;;;;;;38.27;29.20;;;8.00;99.90;;;;;;4914603;29;20236;-60
2022/03/17 06:17:41;;;;;;;38.43;28.13;;;8.00;99.90;;;;;;4914166;29;20706;-59
2022/03/17 06:20:13;;;;;;;37.40;27.87;;;8.00;99.90;;;;;;4914184;29;20240;-60
2022/03/17 06:22:42;;;;;;;39.57;29.53;;;8.00;99.90;;;;;;4918134;29;20249;-60
2022/03/17 06:25:13;;;;;;;40.13;30.07;;;8.00;99.90;;;;;;4914233;29;20259;-60
2022/03/17 06:27:43;;;;;;;39.33;30.23;;;8.10;99.90;;;;;;4914091;29;20295;-59
2022/03/17 06:30:14;;;;;;;40.13;29.10;;;8.10;99.90;;;;;;4914511;29;20283;-60
2022/03/17 06:32:44;;;;;;;40.43;29.00;;;8.10;99.90;;;;;;4914116;29;20707;-60
2022/03/17 06:35:15;;;;;;;41.03;29.63;;;8.10;99.90;;;;;;4913679;29;20295;-60
2022/03/17 06:37:43;;;;;;;40.60;29.73;;;8.10;99.90;;;;;;4928872;29;20244;-60
2022/03/17 06:40:13;;;;;;;39.53;27.57;;;8.10;99.90;;;;;;4930813;29;20703;-60
2022/03/17 06:42:41;;;;;;;41.03;30.50;;;8.10;99.90;;;;;;4915621;29;20299;-60
2022/03/17 06:45:10;;;;;;;40.07;29.97;;;8.10;99.90;;;;;;4933319;29;20743;-60
2022/03/17 06:47:38;;;;;;;40.73;30.03;;;8.10;99.90;;;;;;4932905;29;20287;-59
2022/03/17 06:50:09;;;;;;;39.43;30.73;;;8.10;99.90;;;;;;4933168;29;20240;-60
2022/03/17 06:52:37;;;;;;;39.43;29.70;;;8.10;99.90;;;;;;4929317;29;20236;-59
2022/03/17 06:55:06;;;;;;;38.57;29.03;;;8.00;99.90;;;;;;4933193;29;20246;-60
2022/03/17 06:57:34;;;;;;;39.67;28.70;;;8.10;99.90;;;;;;4932856;29;20761;-60
2022/03/17 07:00:07;;;;;;;42.33;30.43;;;8.10;99.90;;;;;;4933086;29;20291;-60
2022/03/17 07:02:35;;;;;;;42.17;31.43;;;8.10;99.90;;;;;;4929177;29;20323;-60
2022/03/17 07:05:05;;;;;;;42.10;29.73;;;8.20;99.90;;;;;;4933112;29;20316;-60
2022/03/17 07:07:34;;;;;;;40.07;29.80;;;8.10;99.90;;;;;;4932588;29;20742;-60
2022/03/17 07:10:05;;;;;;;39.50;29.67;;;8.20;99.90;;;;;;4933045;29;20255;-60
2022/03/17 07:12:33;;;;;;;41.57;30.13;;;8.30;99.90;;;;;;4932819;29;20240;-60
2022/03/17 07:15:02;;;;;;;41.80;30.47;;;8.30;99.90;;;;;;4935539;29;20323;-60
2022/03/17 07:17:35;;;;;;;41.17;29.07;;;8.30;99.90;;;;;;4936700;29;20295;-60
2022/03/17 07:20:05;;;;;;;40.77;30.73;;;8.30;99.90;;;;;;4936917;29;20263;-60
2022/03/17 07:22:35;;;;;;;41.83;29.47;;;8.30;99.90;;;;;;4932771;29;20241;-59
2022/03/17 07:25:04;;;;;;;40.47;29.73;;;8.30;99.90;;;;;;4936731;29;20240;-60
2022/03/17 07:27:33;;;;;;;41.77;30.43;;;8.30;99.90;;;;;;4936312;29;20235;-60
2022/03/17 07:30:02;;;;;;;39.37;29.20;;;8.40;99.90;;;;;;4925545;29;20594;-60
2022/03/17 07:32:36;;;;;;;39.70;28.63;;;8.40;99.90;;;;;;4917421;29;20240;-60
2022/03/17 07:35:04;;;;;;;39.10;28.90;;;8.40;99.90;;;;;;4934489;29;20239;-60
2022/03/17 07:37:33;;;;;;;37.60;28.40;;;8.40;99.90;;;;;;4927121;29;20739;-60
2022/03/17 07:40:02;;;;;;;39.10;29.63;;;8.40;99.90;;;;;;4925394;29;20712;-60
2022/03/17 07:42:30;;;;;;;42.63;30.77;;;8.40;99.90;;;;;;4934571;29;20252;-60
2022/03/17 07:45:21;;;;;;;39.30;28.40;;;8.50;99.90;;;;;;4925820;29;20264;-60
2022/03/17 07:48:08;;;;;;;38.57;29.30;;;8.50;99.90;;;;;;4914578;29;20263;-60
2022/03/17 07:50:41;;;;;;;38.37;29.87;;;8.50;99.90;;;;;;4911547;29;20261;-60
2022/03/17 07:53:09;;;;;;;42.30;29.50;;;8.60;99.90;;;;;;4936096;29;20721;-60
2022/03/17 07:55:39;;;;;;;36.17;28.93;;;8.60;99.90;;;;;;4917002;29;20244;-60
2022/03/17 07:58:08;;;;;;;38.30;29.60;;;8.60;99.90;;;;;;4922044;29;20247;-60
2022/03/17 08:00:36;;;;;;;35.97;28.70;;;8.60;99.90;;;;;;4927911;29;20232;-60
2022/03/17 08:03:05;;;;;;;35.50;28.03;;;8.70;99.90;;;;;;4931032;29;20743;-60
2022/03/17 08:05:33;;;;;;;35.80;28.87;;;8.70;99.90;;;;;;4929131;29;20232;-60
2022/03/17 08:08:02;;;;;;;37.83;29.37;;;8.60;99.90;;;;;;4927923;29;20299;-60
2022/03/17 08:10:30;;;;;;;36.60;28.83;;;8.60;99.90;;;;;;4931950;29;20255;-60
2022/03/17 08:13:02;;;;;;;36.27;28.97;;;8.60;99.90;;;;;;4919496;29;20272;-60
2022/03/17 08:15:30;;;;;;;39.43;29.97;;;8.50;99.90;;;;;;4925314;29;20201;-59
2022/03/17 08:17:58;;;;;;;38.53;29.10;;;8.50;99.90;;;;;;4928016;29;20318;-60
2022/03/17 08:20:27;;;;;;;39.50;29.20;;;8.50;99.90;;;;;;4927722;29;20248;-60
2022/03/17 08:22:55;;;;;;;39.67;29.93;;;8.40;99.90;;;;;;4926210;29;20329;-60
2022/03/17 08:25:24;;;;;;;41.93;30.67;;;8.40;99.90;;;;;;4925805;29;20259;-59
2022/03/17 08:27:54;;;;;;;37.50;28.97;;;8.40;99.90;;;;;;4929534;29;20242;-60
2022/03/17 08:30:24;;;;;;;37.33;29.47;;;8.40;99.90;;;;;;4927081;29;20245;-60
2022/03/17 08:32:52;;;;;;;38.50;29.40;;;8.30;99.90;;;;;;4916754;29;20784;-60
2022/03/17 08:35:20;;;;;;;38.57;30.00;;;8.30;99.90;;;;;;4925266;29;20339;-60
2022/03/17 08:37:48;;;;;;;38.00;29.87;;;8.30;99.90;;;;;;4927214;29;20245;-60
2022/03/17 08:40:16;;;;;;;39.17;30.40;;;8.30;99.90;;;;;;4927483;29;20320;-60
2022/03/17 08:42:44;;;;;;;39.40;30.53;;;8.30;99.90;;;;;;4933341;29;20244;-60
2022/03/17 08:50:47;;;;;;;42.60;31.53;;;8.30;99.90;;;;;;4917013;29;20249;-59
2022/03/17 08:53:16;;;;;;;38.80;31.10;;;8.20;99.90;;;;;;4919712;29;20253;-60
2022/03/17 08:55:44;;;;;;;43.70;32.63;;;8.20;99.90;;;;;;4928167;29;20237;-60
2022/03/17 08:58:13;;;;;;;39.70;30.63;;;8.20;99.90;;;;;;4929570;29;20241;-59
2022/03/17 09:00:41;;;;;;;39.00;31.00;;;8.20;99.90;;;;;;4927473;29;20241;-59
2022/03/17 09:03:11;;;;;;;41.77;31.23;;;8.20;99.90;;;;;;4929954;29;20268;-60
2022/03/17 09:05:41;;;;;;;45.20;34.13;;;8.20;99.90;;;;;;4925112;29;20236;-59
2022/03/17 09:08:09;;;;;;;41.63;31.67;;;8.20;99.90;;;;;;4919477;29;20236;-59
2022/03/17 09:10:39;;;;;;;43.40;33.40;;;8.20;99.90;;;;;;4915905;29;20240;-60
2022/03/17 09:13:08;;;;;;;40.60;31.23;;;8.20;99.90;;;;;;4915982;29;20300;-59
2022/03/17 09:15:38;;;;;;;42.07;32.37;;;8.20;99.90;;;;;;4926562;29;20236;-59
2022/03/17 09:18:08;;;;;;;42.80;32.90;;;8.20;99.90;;;;;;4930198;29;20260;-59
2022/03/17 09:20:38;;;;;;;46.00;33.57;;;8.20;99.90;;;;;;4926438;29;20278;-59
2022/03/17 09:23:07;;;;;;;45.10;32.80;;;8.20;99.90;;;;;;4928512;29;20248;-59
2022/03/17 09:25:35;;;;;;;42.43;32.53;;;8.20;99.90;;;;;;4926404;29;20228;-59
2022/03/17 09:28:04;;;;;;;43.93;33.57;;;8.20;99.90;;;;;;4931688;29;20245;-59
2022/03/17 09:30:34;;;;;;;43.63;34.10;;;8.20;99.90;;;;;;4926384;29;20237;-59
2022/03/17 09:33:03;;;;;;;46.10;35.23;;;8.20;99.90;;;;;;4919648;29;20267;-59
2022/03/17 09:35:31;;;;;;;44.57;34.30;;;8.20;99.90;;;;;;4926354;29;20264;-59
2022/03/17 09:38:01;;;;;;;45.37;34.23;;;8.20;99.90;;;;;;4926741;29;20240;-60
2022/03/17 09:40:29;;;;;;;40.73;31.47;;;8.20;99.90;;;;;;4915220;29;20578;-60
2022/03/17 09:45:41;;;;;;;48.83;35.10;;;8.20;99.90;;;;;;4914776;29;20608;-59
2022/03/17 09:48:11;;;;;;;41.57;32.33;;;8.30;99.90;;;;;;4920573;29;20696;-59
2022/03/17 09:50:40;;;;;;;46.27;34.67;;;8.30;99.90;;;;;;4934191;29;20263;-60
2022/03/17 09:53:10;;;;;;;45.83;34.03;;;8.30;99.90;;;;;;4934333;29;20248;-60
2022/03/17 09:55:41;;;;;;;41.50;32.17;;;8.30;99.90;;;;;;4934202;29;20322;-59
2022/03/17 09:58:09;;;;;;;45.03;32.63;;;8.30;99.90;;;;;;4934275;29;20244;-60
2022/03/17 10:00:50;;;;;;;41.87;32.87;;;8.30;99.90;;;;;;4934193;29;20236;-60
2022/03/17 10:03:21;;;;;;;40.53;32.20;;;8.30;99.90;;;;;;4933761;29;20327;-59
2022/03/17 10:05:50;;;;;;;38.30;29.57;;;8.30;99.90;;;;;;4914966;29;20244;-60
2022/03/17 10:08:23;;;;;;;36.23;29.40;;;8.30;99.90;;;;;;4921122;29;20636;-60
2022/03/17 10:10:52;;;;;;;33.10;25.57;;;8.30;99.90;;;;;;4932595;29;20256;-60
2022/03/17 10:13:23;;;;;;;29.93;23.30;;;8.30;99.90;;;;;;4933817;29;20241;-60
2022/03/17 10:16:07;;;;;;;28.47;21.43;;;8.30;99.90;;;;;;4933943;29;20288;-60
2022/03/17 10:18:37;;;;;;;23.00;17.93;;;8.30;99.90;;;;;;4933633;29;20232;-59
2022/03/17 10:21:10;;;;;;;22.33;17.73;;;8.30;99.90;;;;;;4933659;29;20663;-60
2022/03/17 10:23:48;;;;;;;20.30;15.10;;;8.20;99.90;;;;;;4924693;29;20709;-60
2022/03/17 10:26:32;;;;;;;18.17;13.60;;;8.20;99.90;;;;;;4914535;29;20653;-60
2022/03/17 10:29:08;;;;;;;16.63;13.03;;;8.20;99.90;;;;;;4922654;29;20637;-60
2022/03/17 10:31:53;;;;;;;16.03;11.27;;;8.10;99.90;;;;;;4914473;29;20236;-60
2022/03/17 10:34:23;;;;;;;16.73;11.50;;;8.10;99.90;;;;;;4928840;29;20236;-58
2022/03/17 10:36:51;;;;;;;13.50;10.00;;;8.10;99.90;;;;;;4933550;29;20683;-60
2022/03/17 10:39:20;;;;;;;14.13;10.47;;;8.20;99.90;;;;;;4923854;29;20260;-60
2022/03/17 10:41:49;;;;;;;12.97;9.10;;;8.20;99.90;;;;;;4913469;29;20245;-60
2022/03/17 10:44:19;;;;;;;13.13;8.90;;;8.30;99.90;;;;;;4916863;29;20238;-60
2022/03/17 10:47:01;;;;;;;13.33;7.10;;;8.30;99.90;;;;;;4914429;29;20288;-60
2022/03/17 10:49:30;;;;;;;10.70;5.70;;;8.30;99.90;;;;;;4914671;29;20319;-60
2022/03/17 10:51:58;;;;;;;9.33;4.63;;;8.30;99.90;;;;;;4919597;29;20256;-60
2022/03/17 10:54:28;;;;;;;6.73;3.53;;;8.30;99.90;;;;;;4914404;29;20304;-60
2022/03/17 10:57:02;;;;;;;9.00;3.53;;;8.30;99.90;;;;;;4914306;29;20240;-60
2022/03/17 10:59:38;;;;;;;5.43;3.20;;;8.30;99.90;;;;;;4923011;29;20236;-60
2022/03/17 11:02:10;;;;;;;6.97;2.50;;;8.40;99.90;;;;;;4918922;29;20267;-60
2022/03/17 11:04:41;;;;;;;6.93;2.17;;;8.40;99.90;;;;;;4923205;29;20244;-60
2022/03/17 11:07:13;;;;;;;6.03;2.50;;;8.50;99.90;;;;;;4917869;29;20329;-60
2022/03/17 11:09:44;;;;;;;7.33;2.10;;;8.50;99.90;;;;;;4920876;29;20243;-60
2022/03/17 11:12:17;;;;;;;6.40;2.03;;;8.60;99.90;;;;;;4919774;29;20260;-60
2022/03/17 11:14:47;;;;;;;6.47;2.23;;;8.60;99.90;;;;;;4916984;29;20701;-60
2022/03/17 11:17:21;;;;;;;7.83;2.20;;;8.70;99.90;;;;;;4915159;29;20259;-60
2022/03/17 11:19:50;;;;;;;5.47;1.90;;;8.70;99.90;;;;;;4921766;29;20322;-60
2022/03/17 11:22:28;;;;;;;7.53;2.00;;;8.60;99.90;;;;;;4924334;29;20247;-59
2022/03/17 11:25:19;;;;;;;5.57;1.83;;;8.60;99.90;;;;;;4916541;29;20327;-60
2022/03/17 11:27:49;;;;;;;5.13;1.70;;;8.50;99.90;;;;;;4899365;29;20634;-60
2022/03/17 11:30:19;;;;;;;7.90;2.43;;;8.60;99.90;;;;;;4929261;29;20236;-60
2022/03/17 11:32:54;;;;;;;7.10;2.60;;;8.50;99.90;;;;;;4915772;29;20735;-60
2022/03/17 11:35:26;;;;;;;5.93;2.47;;;8.50;99.90;;;;;;4917129;29;20251;-60
2022/03/17 11:38:14;;;;;;;6.23;2.57;;;8.50;99.90;;;;;;4913491;29;20726;-60
2022/03/17 11:41:07;;;;;;;7.30;2.17;;;8.60;99.90;;;;;;4914046;29;20238;-60
2022/03/17 11:43:59;;;;;;;5.30;1.80;;;8.70;99.90;;;;;;4914844;29;20230;-60
2022/03/17 11:46:41;;;;;;;6.60;1.70;;;8.90;99.90;;;;;;4924236;29;20244;-60
2022/03/17 11:49:21;;;;;;;7.73;1.70;;;8.90;99.90;;;;;;4929830;29;20263;-60
2022/03/17 11:51:54;;;;;;;6.10;1.80;;;8.90;99.90;;;;;;4919934;29;20300;-60
2022/03/17 11:54:23;;;;;;;7.83;1.70;;;8.90;99.90;;;;;;4925877;29;20244;-60
2022/03/17 11:56:55;;;;;;;4.67;2.20;;;8.80;99.90;;;;;;4915302;29;20245;-60
2022/03/17 11:59:30;;;;;;;5.10;1.67;;;8.70;99.90;;;;;;4921171;29;20228;-60
2022/03/17 12:01:58;;;;;;;7.60;1.60;;;8.60;99.90;;;;;;4931137;29;20298;-60
2022/03/17 12:04:30;;;;;;;6.50;1.23;;;8.50;99.90;;;;;;4930263;29;20241;-60
2022/03/17 12:07:09;;;;;;;9.17;1.43;;;8.30;99.90;;;;;;4922017;29;20648;-60
2022/03/17 12:09:38;;;;;;;9.23;1.33;;;8.20;99.90;;;;;;4918960;29;20255;-60
2022/03/17 12:12:20;;;;;;;7.70;1.73;;;8.20;99.90;;;;;;4918479;29;20308;-60
2022/03/17 12:14:50;;;;;;;9.97;1.53;;;8.10;99.90;;;;;;4923322;29;20241;-60
2022/03/17 12:17:19;;;;;;;6.03;1.30;;;8.10;99.90;;;;;;4925084;29;20243;-60
2022/03/17 12:19:50;;;;;;;6.53;1.40;;;8.20;99.90;;;;;;4917728;29;20280;-60
2022/03/17 12:22:21;;;;;;;7.53;1.20;;;8.20;99.90;;;;;;4917561;29;20248;-60
2022/03/17 12:24:53;;;;;;;8.47;1.57;;;8.30;99.90;;;;;;4924366;29;20252;-60
2022/03/17 12:27:28;;;;;;;11.00;1.40;;;8.40;99.90;;;;;;4925857;29;20784;-60
2022/03/17 12:29:59;;;;;;;7.20;1.20;;;8.50;99.90;;;;;;4923928;29;20577;-60
2022/03/17 12:32:30;;;;;;;6.30;1.77;;;8.60;99.90;;;;;;4917834;29;20321;-60
2022/03/17 12:35:00;;;;;;;7.40;1.23;;;8.80;99.90;;;;;;4919379;29;20260;-60
2022/03/17 12:37:29;;;;;;;7.47;1.60;;;8.70;99.90;;;;;;4934096;29;20287;-60
2022/03/17 12:40:01;;;;;;;7.13;1.63;;;8.70;99.90;;;;;;4919228;29;20269;-60
2022/03/17 12:42:33;;;;;;;11.47;2.30;;;8.60;99.90;;;;;;4931068;29;20242;-60
2022/03/17 12:45:03;;;;;;;11.23;1.83;;;8.60;99.90;;;;;;4902729;29;20597;-60
2022/03/17 12:47:33;;;;;;;7.87;1.90;;;8.60;99.90;;;;;;4918117;29;20718;-60
2022/03/17 12:50:06;;;;;;;7.23;1.47;;;8.70;99.90;;;;;;4924161;29;20322;-60
2022/03/17 12:52:36;;;;;;;8.73;1.80;;;8.80;99.90;;;;;;4934593;29;20244;-60
2022/03/17 12:55:06;;;;;;;8.10;1.33;;;8.90;99.90;;;;;;4928314;29;20324;-60
2022/03/17 12:57:37;;;;;;;5.57;1.37;;;8.90;99.90;;;;;;4933902;29;20260;-60
2022/03/17 13:00:07;;;;;;;8.10;1.60;;;8.90;99.90;;;;;;4923985;29;20260;-60
2022/03/17 13:02:35;;;;;;;5.47;1.50;;;8.80;99.90;;;;;;4917478;29;20241;-60
2022/03/17 13:06:53;;;;;;;5.87;1.43;;;8.80;99.90;;;;;;4928650;29;20240;-59
2022/03/17 13:07:54;;;;;;;6.90;1.67;;;8.70;99.90;;;;;;4932212;29;20271;-60
2022/03/17 13:10:27;;;;;;;6.20;1.30;;;8.70;99.90;;;;;;4926600;29;20240;-60
2022/03/17 13:15:43;;;;;;;9.50;1.80;;;8.60;99.90;;;;;;4916251;29;20240;-59